Time;durP1;ratioP1;P1;durP2;ratioP2;P2;SDS_P1;SDS_P2;PMS_P1;PMS_P2;Temp;Humidity;BMP_temperature;BMP_pressure;BME280_temperature;BME280_humidity;BME280_pressure;Samples;Min_cycle;Max_cycle;Signal;HPM_P1;HPM_P2
2022/05/28 00:02:30;;;;;;;7.37;2.07;;;;;;;10.46;88.19;101188.47;8366461;28;20111;-62
2022/05/28 00:06:33;;;;;;;14.57;2.50;;;;;;;10.51;88.38;101187.09;8374206;28;20283;-62
2022/05/28 00:10:33;;;;;;;12.30;3.95;;;;;;;10.37;89.64;101190.03;8381663;28;20548;-62
2022/05/28 00:14:34;;;;;;;12.38;2.40;;;;;;;10.28;89.08;101179.97;8368523;28;20044;-62
2022/05/28 00:18:37;;;;;;;6.80;2.28;;;;;;;10.29;88.38;101183.53;8377857;28;20041;-62
2022/05/28 00:22:39;;;;;;;11.35;2.40;;;;;;;10.36;88.51;101176.66;8374894;28;20040;-63
2022/05/28 00:26:43;;;;;;;9.18;2.15;;;;;;;10.37;87.73;101173.81;8377144;28;20037;-62
2022/05/28 00:30:43;;;;;;;12.53;2.93;;;;;;;10.44;87.78;101169.66;8367701;28;20041;-62
2022/05/28 00:34:44;;;;;;;8.02;2.00;;;;;;;10.37;88.77;101171.13;8361576;28;20580;-62
2022/05/28 00:38:45;;;;;;;13.13;2.65;;;;;;;10.29;88.72;101165.50;8365105;28;20041;-62
2022/05/28 00:42:45;;;;;;;9.00;2.83;;;;;;;10.35;88.68;101164.13;8362548;28;20039;-62
2022/05/28 00:46:46;;;;;;;12.60;2.90;;;;;;;10.46;87.62;101154.16;8366014;28;20497;-62
2022/05/28 00:50:46;;;;;;;10.65;2.28;;;;;;;10.36;87.58;101164.00;8378086;28;20041;-62
2022/05/28 00:54:48;;;;;;;14.30;2.80;;;;;;;10.38;87.54;101164.75;8370842;28;20056;-62
2022/05/28 00:58:49;;;;;;;8.90;2.50;;;;;;;10.40;87.30;101162.75;8373563;28;20036;-62
2022/05/28 01:02:57;;;;;;;7.10;2.40;;;;;;;10.39;87.40;101155.66;8377754;28;20032;-62
2022/05/28 01:07:07;;;;;;;9.13;2.20;;;;;;;10.27;88.46;101163.91;8384195;28;20464;-62
2022/05/28 01:11:45;;;;;;;11.20;2.53;;;;;;;10.20;88.36;101150.00;8378021;28;20037;-62
2022/05/28 01:15:53;;;;;;;13.50;2.60;;;;;;;10.22;90.95;101148.06;8357050;28;20091;-62
2022/05/28 01:20:06;;;;;;;13.05;2.42;;;;;;;10.24;89.99;101143.38;8367577;28;20045;-62
2022/05/28 01:24:25;;;;;;;11.25;2.50;;;;;;;10.30;89.71;101133.91;8353734;28;20052;-62
2022/05/28 01:28:33;;;;;;;10.40;3.20;;;;;;;10.51;89.99;101130.34;8370110;28;20036;-62
2022/05/28 01:32:35;;;;;;;13.50;2.85;;;;;;;10.59;89.57;101130.56;8365018;28;20037;-63
2022/05/28 01:36:37;;;;;;;8.82;2.35;;;;;;;10.67;87.75;101119.13;8372283;28;20068;-62
2022/05/28 01:40:39;;;;;;;10.63;2.47;;;;;;;10.77;87.69;101115.50;8377018;28;20050;-62
2022/05/28 01:44:41;;;;;;;7.70;2.47;;;;;;;10.70;88.06;101117.00;8362617;28;20053;-62
2022/05/28 01:48:44;;;;;;;11.32;2.75;;;;;;;10.66;90.45;101120.09;8364100;28;20039;-62
2022/05/28 01:52:45;;;;;;;8.02;2.28;;;;;;;10.45;90.90;101109.22;8364361;28;20041;-62
2022/05/28 01:56:49;;;;;;;13.82;2.55;;;;;;;10.29;92.94;101105.16;8374821;28;20049;-62
2022/05/28 02:00:49;;;;;;;12.07;2.85;;;;;;;10.12;93.90;101106.53;8373150;28;20654;-62
2022/05/28 02:04:50;;;;;;;11.20;2.80;;;;;;;10.01;94.44;101095.72;8359127;28;20543;-62
2022/05/28 02:08:52;;;;;;;13.70;2.33;;;;;;;10.15;93.23;101103.56;8351910;28;20275;-62
2022/05/28 02:13:02;;;;;;;13.27;2.50;;;;;;;10.38;90.34;101099.88;8358478;28;20041;-62
2022/05/28 02:17:15;;;;;;;16.80;2.88;;;;;;;10.52;88.93;101102.31;8342240;28;20536;-62
2022/05/28 02:21:22;;;;;;;14.60;2.58;;;;;;;10.59;87.55;101087.31;8360413;28;20166;-63
2022/05/28 02:25:33;;;;;;;10.52;2.20;;;;;;;10.81;86.39;101092.66;8377072;28;20507;-63
2022/05/28 02:29:34;;;;;;;13.07;2.58;;;;;;;10.82;86.34;101088.94;8361900;28;20123;-62
2022/05/28 02:33:34;;;;;;;12.57;2.72;;;;;;;10.93;86.05;101091.63;8362795;28;20048;-62
2022/05/28 02:37:35;;;;;;;11.60;2.63;;;;;;;10.99;86.29;101093.81;8364390;28;20078;-62
2022/05/28 02:41:35;;;;;;;11.50;3.08;;;;;;;11.08;86.17;101084.94;8363927;28;20049;-63
2022/05/28 02:45:35;;;;;;;15.90;3.05;;;;;;;11.21;85.67;101080.19;8369770;28;20045;-62
2022/05/28 02:49:36;;;;;;;14.70;2.33;;;;;;;11.35;85.86;101066.31;8365108;28;20041;-62
2022/05/28 02:53:37;;;;;;;13.02;2.60;;;;;;;11.42;85.56;101075.63;8361346;28;20365;-63
2022/05/28 02:57:37;;;;;;;16.52;2.80;;;;;;;11.48;84.90;101075.09;8372917;28;20048;-63
2022/05/28 03:01:38;;;;;;;14.27;3.70;;;;;;;11.64;84.43;101071.94;8373963;28;20041;-62
2022/05/28 03:05:38;;;;;;;11.95;2.67;;;;;;;11.67;84.37;101077.94;8374988;28;20284;-62
2022/05/28 03:09:39;;;;;;;13.68;2.55;;;;;;;11.71;84.56;101070.41;8368455;28;20040;-62
2022/05/28 03:13:40;;;;;;;17.67;3.13;;;;;;;11.70;85.01;101080.41;8364403;28;20052;-62
2022/05/28 03:17:40;;;;;;;12.60;2.65;;;;;;;11.75;84.08;101080.84;8362349;28;20311;-62
2022/05/28 03:21:40;;;;;;;17.13;3.03;;;;;;;11.70;84.34;101072.28;8363036;28;20075;-62
2022/05/28 03:25:41;;;;;;;16.40;2.85;;;;;;;11.72;84.35;101080.25;8364413;28;20103;-62
2022/05/28 03:29:42;;;;;;;14.05;2.70;;;;;;;11.54;86.59;101076.41;8364503;28;20462;-62
2022/05/28 03:33:42;;;;;;;14.98;3.25;;;;;;;11.46;87.98;101084.31;8364755;28;20455;-62
2022/05/28 03:37:42;;;;;;;11.15;2.85;;;;;;;11.53;88.34;101089.09;8367695;28;20393;-62
2022/05/28 03:41:43;;;;;;;14.48;2.97;;;;;;;11.37;90.05;101086.00;8349954;28;20063;-62
2022/05/28 03:45:43;;;;;;;15.55;3.80;;;;;;;11.48;89.66;101083.22;8379206;28;20045;-62
2022/05/28 03:49:44;;;;;;;16.73;3.05;;;;;;;11.42;89.36;101088.31;8376105;28;20037;-62
2022/05/28 03:53:44;;;;;;;32.25;3.63;;;;;;;11.38;89.03;101081.44;8382735;28;20733;-62
2022/05/28 03:57:47;;;;;;;16.52;3.17;;;;;;;11.44;87.67;101081.75;8375977;28;20041;-62
2022/05/28 04:01:47;;;;;;;14.68;3.53;;;;;;;11.42;88.58;101088.31;8367981;28;20059;-62
2022/05/28 04:05:47;;;;;;;15.60;3.25;;;;;;;11.58;87.01;101088.69;8368555;28;20048;-62
2022/05/28 04:09:48;;;;;;;15.70;3.88;;;;;;;11.67;87.26;101086.09;8374779;28;20037;-62
2022/05/28 04:13:48;;;;;;;19.25;2.88;;;;;;;11.88;85.61;101081.50;8374138;28;20462;-62
2022/05/28 04:17:49;;;;;;;16.33;3.72;;;;;;;11.90;85.17;101084.06;8356008;28;20045;-62
2022/05/28 04:21:49;;;;;;;18.63;2.83;;;;;;;11.88;85.16;101086.03;8361415;28;20087;-62
2022/05/28 04:25:49;;;;;;;19.88;2.92;;;;;;;11.83;85.77;101083.75;8367357;28;20596;-62
2022/05/28 04:29:50;;;;;;;20.87;3.10;;;;;;;11.97;85.41;101087.06;8374985;28;20190;-62
2022/05/28 04:33:51;;;;;;;13.13;2.83;;;;;;;12.08;85.07;101089.72;8363941;28;20345;-62
2022/05/28 04:37:51;;;;;;;13.95;2.95;;;;;;;12.18;85.02;101093.31;8357514;28;20048;-62
2022/05/28 04:41:51;;;;;;;14.07;3.05;;;;;;;12.37;84.26;101087.94;8363731;28;20040;-62
2022/05/28 04:45:52;;;;;;;11.75;2.45;;;;;;;12.58;83.87;101091.44;8366183;28;20368;-62
2022/05/28 04:49:52;;;;;;;14.77;3.20;;;;;;;12.63;83.85;101094.59;8352450;28;20040;-62
2022/05/28 04:53:52;;;;;;;13.80;2.70;;;;;;;12.67;83.66;101096.03;8357777;28;20287;-62
2022/05/28 04:57:53;;;;;;;23.23;3.13;;;;;;;12.88;83.33;101096.78;8377451;28;20254;-62
2022/05/28 05:01:53;;;;;;;13.27;3.65;;;;;;;13.10;83.15;101093.81;8366146;28;20056;-62
2022/05/28 05:05:54;;;;;;;18.58;3.15;;;;;;;13.38;82.56;101092.94;8372320;28;20663;-62
2022/05/28 05:09:54;;;;;;;17.90;3.50;;;;;;;13.48;81.63;101094.66;8366573;28;20044;-62
2022/05/28 05:13:54;;;;;;;16.63;2.77;;;;;;;13.64;82.41;101094.06;8371207;28;20468;-62
2022/05/28 05:17:55;;;;;;;13.48;3.28;;;;;;;13.88;82.43;101097.16;8359709;28;20287;-62
2022/05/28 05:21:56;;;;;;;16.58;2.67;;;;;;;13.98;80.79;101097.97;8366210;28;20038;-62
2022/05/28 05:25:56;;;;;;;24.38;2.80;;;;;;;14.05;80.71;101095.50;8376717;28;20064;-62
2022/05/28 05:29:58;;;;;;;18.27;2.88;;;;;;;14.27;79.98;101112.34;8375971;28;20040;-62
2022/05/28 05:33:58;;;;;;;13.60;2.50;;;;;;;14.23;80.47;101113.66;8370374;28;20036;-62
2022/05/28 05:38:05;;;;;;;9.60;2.30;;;;;;;14.47;81.30;101116.69;8390620;28;20083;-62
2022/05/28 05:42:05;;;;;;;14.45;3.45;;;;;;;14.57;80.59;101109.31;8366955;28;20328;-62
2022/05/28 05:46:07;;;;;;;14.10;2.75;;;;;;;14.61;81.19;101113.44;8376669;28;20045;-62
2022/05/28 05:50:08;;;;;;;11.10;2.42;;;;;;;14.70;81.56;101115.25;8368946;28;20036;-63
2022/05/28 05:54:08;;;;;;;13.63;2.90;;;;;;;14.78;79.86;101119.94;8374561;28;20052;-63
2022/05/28 05:58:08;;;;;;;13.60;2.97;;;;;;;14.98;79.85;101122.38;8368595;28;20044;-62
2022/05/28 06:02:10;;;;;;;10.82;2.10;;;;;;;14.90;78.15;101118.72;8382094;28;20492;-62
2022/05/28 06:06:14;;;;;;;17.83;2.65;;;;;;;14.91;79.09;101121.28;8381076;28;20049;-63
2022/05/28 06:10:16;;;;;;;16.25;2.67;;;;;;;14.87;78.30;101125.34;8365478;28;20312;-63
2022/05/28 06:14:16;;;;;;;15.57;2.10;;;;;;;14.99;77.82;101117.78;8378126;28;20098;-63
2022/05/28 06:18:17;;;;;;;13.23;2.50;;;;;;;14.65;79.69;101136.66;8366982;28;20051;-63
2022/05/28 06:22:17;;;;;;;14.02;3.33;;;;;;;14.83;80.08;101123.94;8368264;28;20071;-63
2022/05/28 06:26:17;;;;;;;12.98;2.63;;;;;;;14.88;81.24;101135.19;8379989;28;20044;-63
2022/05/28 06:30:18;;;;;;;12.73;3.20;;;;;;;15.37;81.03;101123.00;8358877;28;20082;-63
2022/05/28 06:34:18;;;;;;;10.73;3.63;;;;;;;15.41;80.56;101132.56;8369239;28;20370;-63
2022/05/28 06:38:20;;;;;;;14.43;3.38;;;;;;;15.54;79.81;101133.88;8377635;28;20064;-63
2022/05/28 06:42:21;;;;;;;11.07;2.58;;;;;;;15.21;78.58;101129.09;8377674;28;20047;-63
2022/05/28 06:46:21;;;;;;;16.25;2.80;;;;;;;15.67;77.94;101126.13;8370992;28;20041;-63
2022/05/28 06:51:23;;;;;;;11.63;3.17;;;;;;;15.47;79.13;101130.03;8367694;28;20037;-63
2022/05/28 06:54:42;;;;;;;12.35;2.63;;;;;;;15.55;78.56;101132.84;8372319;28;20051;-63
2022/05/28 06:58:44;;;;;;;14.73;2.88;;;;;;;15.61;81.19;101121.31;8370819;28;20137;-63
2022/05/28 07:02:45;;;;;;;19.08;3.42;;;;;;;15.95;78.22;101126.00;8358774;28;20365;-63
2022/05/28 07:06:45;;;;;;;12.88;2.53;;;;;;;15.58;76.87;101140.72;8364776;28;20041;-62
2022/05/28 07:10:49;;;;;;;9.20;1.73;;;;;;;15.50;74.97;101132.44;8378492;28;20064;-62
2022/05/28 07:14:49;;;;;;;13.13;1.90;;;;;;;15.68;74.47;101146.91;8377711;28;20279;-62
2022/05/28 07:18:49;;;;;;;11.80;1.90;;;;;;;16.14;72.57;101133.97;8373179;28;20128;-62
2022/05/28 07:22:50;;;;;;;12.73;1.80;;;;;;;16.50;70.38;101136.41;8380065;28;20049;-62
2022/05/28 07:26:52;;;;;;;11.15;1.85;;;;;;;15.87;71.54;101136.84;8386304;28;20377;-63
2022/05/28 07:30:55;;;;;;;9.23;1.20;;;;;;;15.67;72.72;101153.41;8369363;28;20587;-63
2022/05/28 07:34:57;;;;;;;6.03;1.27;;;;;;;15.93;71.92;101136.19;8367386;28;20040;-63
2022/05/28 07:38:57;;;;;;;10.98;1.48;;;;;;;16.12;69.91;101144.16;8366523;28;20063;-63
2022/05/28 07:42:58;;;;;;;3.93;1.03;;;;;;;16.11;69.49;101135.16;8367438;28;20124;-62
2022/05/28 07:46:58;;;;;;;6.72;1.83;;;;;;;16.39;67.15;101138.53;8376461;28;20267;-62
2022/05/28 07:50:58;;;;;;;8.70;1.57;;;;;;;16.62;67.47;101131.53;8375475;28;20040;-63
2022/05/28 07:54:59;;;;;;;2.67;0.70;;;;;;;17.22;65.17;101135.78;8388276;28;20306;-63
2022/05/28 07:58:59;;;;;;;7.07;1.10;;;;;;;17.23;61.92;101130.16;8375970;28;20267;-63
2022/05/28 08:03:00;;;;;;;6.82;1.20;;;;;;;17.25;62.89;101127.25;8372487;28;20305;-63
2022/05/28 08:07:02;;;;;;;4.03;1.00;;;;;;;17.02;63.23;101127.03;8370129;28;20060;-63
2022/05/28 08:11:02;;;;;;;6.22;1.10;;;;;;;16.48;62.26;101132.13;8380149;28;20266;-63
2022/05/28 08:15:03;;;;;;;5.25;1.05;;;;;;;16.77;63.90;101129.88;8370962;28;20037;-63
2022/05/28 08:19:04;;;;;;;5.30;0.90;;;;;;;17.55;65.34;101129.38;8363971;28;20040;-62
2022/05/28 08:23:11;;;;;;;8.57;1.40;;;;;;;17.08;62.42;101126.34;8370886;28;20051;-63
2022/05/28 08:27:12;;;;;;;5.32;1.20;;;;;;;17.77;64.54;101134.13;8367844;28;20647;-62
2022/05/28 08:31:12;;;;;;;10.30;1.42;;;;;;;17.51;64.38;101128.84;8371679;28;20040;-62
2022/05/28 08:35:13;;;;;;;10.25;1.90;;;;;;;17.83;64.95;101136.19;8367679;28;20057;-62
2022/05/28 08:39:13;;;;;;;6.68;0.93;;;;;;;17.38;62.34;101130.34;8375286;28;20051;-62
2022/05/28 08:43:16;;;;;;;13.95;1.83;;;;;;;18.11;63.31;101132.03;8373885;28;20037;-62
2022/05/28 08:47:21;;;;;;;5.65;1.10;;;;;;;16.61;60.37;101135.25;8365721;28;20051;-63
2022/05/28 08:56:24;;;;;;;5.03;0.80;;;;;;;17.48;59.62;101126.44;8372074;28;20174;-64
2022/05/28 09:04:41;;;;;;;4.75;0.88;;;;;;;17.20;58.20;101133.22;8386980;27;20387;-62
2022/05/28 09:08:44;;;;;;;6.85;0.95;;;;;;;17.00;58.29;101128.22;8387417;28;20532;-62
2022/05/28 09:12:51;;;;;;;4.72;0.65;;;;;;;17.15;58.30;101126.56;8385471;28;20544;-61
2022/05/28 09:16:54;;;;;;;4.20;0.85;;;;;;;17.87;58.21;101112.09;8365148;28;20048;-62
2022/05/28 09:20:54;;;;;;;5.80;0.95;;;;;;;18.23;56.21;101114.22;8385997;28;20508;-62
2022/05/28 09:24:55;;;;;;;6.63;0.93;;;;;;;19.24;54.77;101116.84;8379507;28;20041;-61
2022/05/28 09:37:59;;;;;;;5.50;0.80;;;;;;;18.15;56.13;101119.75;8340407;28;20395;-61
2022/05/28 09:42:39;;;;;;;6.75;1.38;;;;;;;18.72;56.39;101104.81;8313223;28;20038;-61
2022/05/28 09:46:42;;;;;;;5.28;0.80;;;;;;;18.61;54.97;101110.72;8313186;28;20046;-61
2022/05/28 09:50:43;;;;;;;6.35;0.85;;;;;;;18.10;57.92;101115.78;8309925;28;20030;-61
2022/05/28 09:54:44;;;;;;;8.15;0.75;;;;;;;18.72;58.73;101110.31;8311812;28;20042;-61
2022/05/28 09:58:45;;;;;;;8.38;1.20;;;;;;;19.33;55.36;101118.53;8313406;28;20061;-61
2022/05/28 10:07:14;;;;;;;8.05;1.10;;;;;;;19.09;56.95;101102.22;8307499;28;20034;-59
2022/05/28 10:11:18;;;;;;;4.70;0.50;;;;;;;21.03;50.50;101096.47;8316937;28;20465;-59
2022/05/28 10:15:23;;;;;;;6.30;0.95;;;;;;;21.72;49.00;101092.97;8315762;28;20630;-62
2022/05/28 10:19:31;;;;;;;5.38;0.70;;;;;;;23.11;46.44;101087.06;8308701;28;20654;-62
2022/05/28 10:23:34;;;;;;;4.85;0.60;;;;;;;22.42;48.00;101090.94;8311394;28;20045;-62
2022/05/28 10:27:48;;;;;;;5.15;0.85;;;;;;;19.96;52.18;101098.09;8308647;28;20065;-62
2022/05/28 10:31:51;;;;;;;6.22;0.70;;;;;;;23.33;48.95;101090.53;8313073;28;20053;-62
2022/05/28 10:35:52;;;;;;;4.22;0.90;;;;;;;21.60;48.28;101091.81;8312818;28;20291;-61
2022/05/28 10:40:05;;;;;;;5.65;0.75;;;;;;;22.70;46.93;101082.66;8311149;28;20045;-61
2022/05/28 10:44:06;;;;;;;4.28;0.52;;;;;;;23.05;44.51;101090.63;8312819;28;20538;-61
2022/05/28 10:53:00;;;;;;;3.42;0.45;;;;;;;20.16;46.32;101085.56;8329741;27;20427;-61
2022/05/28 10:57:18;;;;;;;4.78;0.65;;;;;;;19.86;48.27;101075.56;8311485;28;20632;-63
2022/05/28 11:01:38;;;;;;;2.88;0.45;;;;;;;23.16;44.86;101078.16;8315982;28;20048;-64
2022/05/28 11:05:57;;;;;;;4.68;0.50;;;;;;;22.30;44.89;101076.06;8311148;28;20029;-61
2022/05/28 11:14:48;;;;;;;3.50;0.77;;;;;;;21.67;44.72;101073.44;8393519;27;20401;-61
2022/05/28 11:23:48;;;;;;;4.57;0.98;;;;;;;21.05;47.67;101055.91;8375930;27;1217938;-61
2022/05/28 11:28:14;;;;;;;5.90;1.08;;;;;;;23.19;45.93;101051.00;8437954;28;20585;-62
2022/05/28 11:32:24;;;;;;;3.10;0.93;;;;;;;24.69;42.73;101041.75;8435754;28;20031;-62
2022/05/28 11:36:30;;;;;;;3.05;0.63;;;;;;;23.67;41.64;101031.53;8430373;28;20050;-60
2022/05/28 11:40:39;;;;;;;4.28;0.68;;;;;;;26.06;42.74;101038.91;8435063;28;20053;-62
2022/05/28 11:44:47;;;;;;;5.00;0.60;;;;;;;21.83;43.53;101040.13;8423419;28;20134;-62
2022/05/28 11:53:38;;;;;;;3.60;0.82;;;;;;;18.74;51.48;101042.50;8471087;28;20050;-57
2022/05/28 11:57:51;;;;;;;4.00;0.90;;;;;;;21.03;48.27;101031.34;8470562;28;20054;-57
2022/05/28 12:01:59;;;;;;;5.37;0.90;;;;;;;23.12;44.83;101027.22;8450300;28;20054;-59
2022/05/28 12:10:35;;;;;;;4.15;0.60;;;;;;;20.06;47.30;101014.41;8392232;27;20829;-58
2022/05/28 12:14:39;;;;;;;3.08;0.63;;;;;;;19.38;48.71;101000.94;8359207;27;20041;-62
2022/05/28 12:18:42;;;;;;;4.50;0.60;;;;;;;19.05;49.90;100998.59;8366289;28;20041;-58
2022/05/28 12:22:55;;;;;;;4.82;0.90;;;;;;;18.98;51.78;101001.25;8345697;28;20052;-62
2022/05/28 12:31:24;;;;;;;4.15;0.60;;;;;;;19.48;49.23;100986.09;8390453;27;20352;-60
2022/05/28 12:39:49;;;;;;;4.50;0.47;;;;;;;18.43;50.17;100986.88;8350806;27;20453;-58
2022/05/28 12:44:02;;;;;;;4.70;0.60;;;;;;;18.98;51.57;100978.44;8363030;28;20052;-58
2022/05/28 13:00:55;;;;;;;3.72;0.60;;;;;;;19.90;48.92;100961.59;8393887;27;20426;-61
2022/05/28 13:05:10;;;;;;;2.97;0.57;;;;;;;19.06;48.24;100965.53;8384473;28;20071;-62
2022/05/28 13:09:12;;;;;;;4.05;0.70;;;;;;;18.73;51.12;100961.31;8373989;28;20164;-62
2022/05/28 13:18:13;;;;;;;2.92;0.80;;;;;;;18.61;48.93;100949.13;8380937;27;21238;-62
2022/05/28 13:22:53;;;;;;;2.75;0.82;;;;;;;19.07;52.01;100937.09;8359711;28;20037;-62
2022/05/28 13:27:07;;;;;;;4.70;1.00;;;;;;;19.90;50.73;100925.91;8352415;28;20122;-62
2022/05/28 13:31:10;;;;;;;6.28;0.90;;;;;;;19.37;51.47;100936.13;8363086;28;20493;-62
2022/05/28 13:35:13;;;;;;;4.68;1.10;;;;;;;18.82;48.94;100932.84;8350316;28;20037;-62
2022/05/28 13:39:14;;;;;;;5.97;0.55;;;;;;;18.97;48.74;100924.69;8366326;28;20045;-62
2022/05/28 13:43:18;;;;;;;5.32;1.20;;;;;;;19.20;48.93;100923.59;8364703;28;20056;-62
2022/05/28 13:47:27;;;;;;;10.05;1.00;;;;;;;19.28;48.88;100923.53;8356283;28;20044;-62
2022/05/28 13:51:29;;;;;;;7.57;1.08;;;;;;;19.11;49.23;100921.97;8357029;28;20586;-62
2022/05/28 13:55:30;;;;;;;5.45;0.90;;;;;;;18.69;49.30;100913.44;8360785;28;20029;-62
2022/05/28 13:59:33;;;;;;;9.10;1.13;;;;;;;18.46;50.15;100915.31;8365850;28;20048;-62
2022/05/28 14:03:38;;;;;;;5.57;0.90;;;;;;;18.28;49.03;100914.72;8359033;28;20049;-62
2022/05/28 14:07:42;;;;;;;1.92;0.60;;;;;;;18.48;50.24;100905.03;8347725;28;20132;-61
2022/05/28 14:11:46;;;;;;;4.53;0.70;;;;;;;19.20;49.44;100904.41;8386389;28;20043;-61
2022/05/28 14:15:49;;;;;;;;;;;;;;;18.62;48.99;100906.97;8353500;28;20178;-61
2022/05/28 14:19:52;;;;;;;5.57;0.70;;;;;;;18.37;48.64;100919.16;8359621;28;19967;-61
2022/05/28 14:23:53;;;;;;;4.93;0.80;;;;;;;18.34;47.81;100908.53;8349078;28;20403;-61
2022/05/28 14:27:56;;;;;;;5.17;0.73;;;;;;;18.44;48.54;100900.94;8360267;28;20061;-62
2022/05/28 14:31:57;;;;;;;5.40;0.60;;;;;;;18.97;52.12;100898.09;8344795;28;20280;-62
2022/05/28 14:36:25;;;;;;;2.78;0.88;;;;;;;19.34;49.69;100894.53;8331174;28;20057;-62
2022/05/28 14:40:28;;;;;;;4.93;0.80;;;;;;;19.42;49.05;100884.31;8331679;28;20703;-62
2022/05/28 14:44:29;;;;;;;4.43;0.70;;;;;;;19.01;48.07;100901.34;8334215;28;20122;-62
2022/05/28 14:48:29;;;;;;;3.85;0.68;;;;;;;19.00;46.50;100878.56;8331946;28;20042;-62
2022/05/28 14:52:32;;;;;;;4.05;0.73;;;;;;;18.99;48.46;100892.44;8337245;28;20041;-62
2022/05/28 14:56:35;;;;;;;4.55;0.70;;;;;;;19.75;50.98;100883.91;8330154;28;20041;-61
2022/05/28 15:00:36;;;;;;;4.05;0.80;;;;;;;19.15;46.58;100887.66;8327838;28;20041;-60
2022/05/28 15:04:36;;;;;;;4.75;0.80;;;;;;;18.61;47.41;100872.44;8323157;28;20072;-60
2022/05/28 15:08:44;;;;;;;6.50;0.90;;;;;;;19.05;51.45;100870.63;8325516;28;20409;-61
2022/05/28 15:12:45;;;;;;;3.35;0.65;;;;;;;19.43;49.38;100880.53;8371407;28;20272;-58
2022/05/28 15:16:45;;;;;;;6.00;0.70;;;;;;;19.20;46.85;100873.38;8398522;28;20091;-57
2022/05/28 15:20:46;;;;;;;5.30;0.87;;;;;;;18.65;45.81;100864.66;8343320;28;20102;-61
2022/05/28 15:24:46;;;;;;;5.55;0.70;;;;;;;18.87;46.01;100867.38;8324069;28;20797;-62
2022/05/28 15:28:47;;;;;;;6.07;1.02;;;;;;;18.94;47.92;100862.84;8327585;28;20433;-62
2022/05/28 15:32:48;;;;;;;11.63;1.40;;;;;;;18.90;48.38;100867.00;8378386;28;20040;-60
2022/05/28 15:37:52;;;;;;;11.85;1.10;;;;;;;18.61;47.87;100856.00;8383260;28;20052;-59
2022/05/28 15:41:14;;;;;;;8.57;1.70;;;;;;;18.74;48.31;100855.34;8345834;28;20059;-57
2022/05/28 15:45:19;;;;;;;5.45;1.50;;;;;;;18.65;46.33;100846.38;8343207;28;20061;-60
2022/05/28 15:49:20;;;;;;;9.10;1.45;;;;;;;18.64;46.26;100858.38;8341067;28;20041;-60
2022/05/28 15:53:20;;;;;;;8.02;1.15;;;;;;;18.48;46.40;100843.94;8330225;28;20048;-60
2022/05/28 15:57:21;;;;;;;7.00;1.40;;;;;;;18.38;47.50;100846.91;8321904;28;20042;-60
2022/05/28 16:01:25;;;;;;;8.73;1.07;;;;;;;18.36;48.84;100846.22;8324245;28;20045;-61
2022/05/28 16:05:26;;;;;;;;;;;;;;;18.30;50.04;100846.94;8335215;28;20379;-60
2022/05/28 16:09:26;;;;;;;5.57;1.23;;;;;;;18.29;48.92;100844.38;8343870;28;20371;-61
2022/05/28 16:13:27;;;;;;;8.20;1.75;;;;;;;18.37;48.61;100847.97;8322723;28;20041;-61
2022/05/28 16:17:36;;;;;;;5.50;1.45;;;;;;;18.34;48.18;100851.03;8332114;28;20398;-61
2022/05/28 16:21:36;;;;;;;5.90;1.50;;;;;;;18.30;46.35;100846.94;8337632;28;20072;-60
2022/05/28 16:25:37;;;;;;;7.30;1.23;;;;;;;18.52;48.93;100837.91;8321581;28;20041;-62
2022/05/28 16:29:37;;;;;;;3.95;1.17;;;;;;;18.50;49.35;100842.72;8324192;28;20280;-63
2022/05/28 16:33:38;;;;;;;3.72;1.13;;;;;;;18.21;49.98;100837.06;8354786;28;20040;-61
2022/05/28 16:37:39;;;;;;;5.90;1.08;;;;;;;18.18;50.87;100837.47;8318577;28;20045;-62
2022/05/28 16:41:39;;;;;;;10.60;2.20;;;;;;;18.10;50.87;100833.91;8326187;28;20049;-62
2022/05/28 16:45:40;;;;;;;4.90;1.02;;;;;;;17.94;50.41;100834.88;8328735;28;20370;-62
2022/05/28 16:49:41;;;;;;;9.32;1.45;;;;;;;17.77;50.49;100827.78;8317637;28;20064;-62
2022/05/28 16:53:41;;;;;;;12.55;1.70;;;;;;;17.52;50.49;100828.94;8315219;28;20472;-62
2022/05/28 16:57:43;;;;;;;3.67;0.88;;;;;;;17.57;51.16;100826.53;8322231;28;20603;-62
2022/05/28 17:01:44;;;;;;;9.13;1.65;;;;;;;17.46;51.50;100829.66;8337576;28;20033;-62
2022/05/28 17:05:45;;;;;;;8.13;1.17;;;;;;;17.32;51.69;100828.47;8330694;28;20629;-62
2022/05/28 17:09:45;;;;;;;11.18;1.40;;;;;;;17.30;51.55;100818.75;8330110;28;20413;-62
2022/05/28 17:13:45;;;;;;;13.53;1.40;;;;;;;17.33;49.99;100818.41;8325175;28;20038;-62
2022/05/28 17:17:46;;;;;;;8.93;1.25;;;;;;;17.26;50.21;100818.25;8324978;28;20342;-62
2022/05/28 17:21:47;;;;;;;10.82;1.67;;;;;;;17.23;51.33;100817.75;8319457;28;20084;-62
2022/05/28 17:25:47;;;;;;;6.07;1.05;;;;;;;17.16;51.80;100816.75;8321225;28;20049;-62
2022/05/28 17:29:48;;;;;;;10.13;1.60;;;;;;;17.06;51.82;100816.09;8322684;28;20620;-62
2022/05/28 17:33:50;;;;;;;4.55;1.00;;;;;;;17.07;53.10;100812.31;8319907;28;20271;-62
2022/05/28 17:37:50;;;;;;;7.32;1.13;;;;;;;16.84;53.86;100822.28;8317745;28;20043;-62
2022/05/28 17:41:51;;;;;;;11.43;1.58;;;;;;;16.75;54.64;100823.34;8325861;28;20037;-62
2022/05/28 17:45:52;;;;;;;9.60;1.58;;;;;;;16.75;55.26;100828.78;8355940;28;20029;-62
2022/05/28 17:49:53;;;;;;;4.97;1.42;;;;;;;16.72;55.52;100821.81;8320759;28;20088;-63
2022/05/28 17:53:54;;;;;;;10.68;1.67;;;;;;;16.71;56.26;100830.19;8341495;28;20063;-63
2022/05/28 17:57:54;;;;;;;8.52;1.65;;;;;;;16.80;55.61;100820.94;8322428;28;20048;-63
2022/05/28 18:01:55;;;;;;;12.02;1.20;;;;;;;16.59;53.27;100826.91;8321111;28;20550;-63
2022/05/28 18:05:56;;;;;;;7.00;1.30;;;;;;;16.41;54.21;100831.66;8326360;28;20049;-63
2022/05/28 18:09:57;;;;;;;8.15;1.40;;;;;;;16.29;54.83;100837.66;8327190;28;20053;-63
2022/05/28 18:13:57;;;;;;;8.10;1.10;;;;;;;16.08;55.55;100829.09;8333162;28;20043;-63
2022/05/28 18:17:58;;;;;;;6.20;1.60;;;;;;;15.99;55.26;100816.47;8324226;28;20308;-68
2022/05/28 18:22:00;;;;;;;5.43;1.17;;;;;;;15.95;55.63;100818.66;8324980;28;20036;-63
2022/05/28 18:26:01;;;;;;;8.13;1.60;;;;;;;15.87;55.56;100817.78;8336265;28;20041;-63
2022/05/28 18:30:04;;;;;;;6.10;1.00;;;;;;;15.82;56.16;100806.56;8327739;28;20503;-63
2022/05/28 18:34:05;;;;;;;5.93;1.33;;;;;;;15.77;56.21;100819.81;8323249;28;20045;-63
2022/05/28 18:38:06;;;;;;;7.30;1.38;;;;;;;15.71;56.20;100814.00;8329259;28;20053;-63
2022/05/28 18:42:12;;;;;;;12.63;1.67;;;;;;;15.70;57.44;100809.59;8326023;28;20037;-63
2022/05/28 18:46:14;;;;;;;8.35;1.00;;;;;;;15.70;57.47;100809.59;8336620;28;20033;-63
2022/05/28 18:50:15;;;;;;;6.07;1.20;;;;;;;15.66;57.37;100816.41;8328915;28;20044;-63
2022/05/28 18:54:16;;;;;;;8.48;1.10;;;;;;;15.54;57.78;100815.00;8334217;28;20037;-63
2022/05/28 18:58:17;;;;;;;9.02;1.17;;;;;;;15.41;59.34;100824.66;8326034;28;20048;-63
2022/05/28 19:02:18;;;;;;;9.00;1.55;;;;;;;15.23;59.96;100823.84;8326460;28;20056;-63
2022/05/28 19:06:19;;;;;;;8.57;1.40;;;;;;;15.05;61.24;100817.63;8325755;28;20132;-63
2022/05/28 19:10:20;;;;;;;14.00;1.75;;;;;;;14.89;61.99;100829.28;8343685;28;20070;-63
2022/05/28 19:14:21;;;;;;;7.60;1.30;;;;;;;14.75;62.54;100818.97;8331379;28;20098;-63
2022/05/28 19:18:22;;;;;;;10.52;1.52;;;;;;;14.62;63.46;100821.28;8335012;28;20041;-63
2022/05/28 19:22:23;;;;;;;14.17;1.90;;;;;;;14.49;64.39;100819.97;8326045;28;20530;-63
2022/05/28 19:27:24;;;;;;;7.70;2.45;;;;;;;14.40;65.36;100827.22;8321623;28;20284;-63
2022/05/28 19:30:44;;;;;;;6.47;2.35;;;;;;;14.30;65.38;100831.03;8330223;28;20037;-63
2022/05/28 19:34:45;;;;;;;10.15;1.95;;;;;;;14.16;66.24;100834.25;8324381;28;20054;-63
2022/05/28 19:38:46;;;;;;;11.48;1.77;;;;;;;14.06;66.56;100833.50;8328413;28;20123;-63
2022/05/28 19:42:55;;;;;;;9.95;1.42;;;;;;;13.94;67.28;100840.16;8325494;28;20068;-63
2022/05/28 19:46:57;;;;;;;10.57;1.65;;;;;;;13.90;66.79;100836.88;8330122;28;20046;-63
2022/05/28 19:51:00;;;;;;;10.73;2.28;;;;;;;13.81;67.14;100840.53;8334478;28;20029;-62
2022/05/28 19:55:00;;;;;;;11.82;3.70;;;;;;;13.78;67.75;100835.41;8334446;28;20060;-62
2022/05/28 19:59:01;;;;;;;8.18;2.10;;;;;;;13.73;67.13;100844.00;8337053;28;20044;-62